Time;durP1;ratioP1;P1;durP2;ratioP2;P2;SDS_P1;SDS_P2;PMS_P1;PMS_P2;Temp;Humidity;BMP_temperature;BMP_pressure;BME280_temperature;BME280_humidity;BME280_pressure;Samples;Min_cycle;Max_cycle;Signal;HPM_P1;HPM_P2
2024/03/18 00:00:58;;;;;;;5.03;3.47;;;;;;;0.55;81.24;100483.94;1864147;76;25441;-59
2024/03/18 00:03:27;;;;;;;5.03;3.08;;;;;;;0.57;81.30;100493.02;1867431;76;25892;-60
2024/03/18 00:05:55;;;;;;;5.85;3.37;;;;;;;0.54;81.44;100483.11;1795206;79;25502;-61
2024/03/18 00:08:21;;;;;;;4.78;3.25;;;;;;;0.52;81.41;100486.54;1851292;75;25552;-61
2024/03/18 00:10:48;;;;;;;5.25;3.55;;;;;;;0.52;81.47;100480.42;1870087;76;27463;-60
2024/03/18 00:13:14;;;;;;;6.30;3.45;;;;;;;0.53;81.57;100475.39;1848182;76;25396;-61
2024/03/18 00:15:40;;;;;;;6.25;3.58;;;;;;;0.54;81.71;100475.66;1867285;76;25498;-60
2024/03/18 00:18:07;;;;;;;6.55;3.60;;;;;;;0.52;81.83;100472.44;1858323;76;25683;-61
2024/03/18 00:20:33;;;;;;;6.20;3.50;;;;;;;0.52;81.97;100473.23;1855288;76;25526;-62
2024/03/18 00:23:00;;;;;;;3.33;3.02;;;;;;;0.52;82.01;100475.89;1860792;76;27480;-61
2024/03/18 00:25:26;;;;;;;4.97;3.10;;;;;;;0.51;82.02;100471.63;1861737;76;25368;-62
2024/03/18 00:27:52;;;;;;;4.65;3.30;;;;;;;0.51;82.22;100471.63;1857853;76;25842;-61
2024/03/18 00:30:18;;;;;;;5.35;2.85;;;;;;;0.51;82.23;100474.80;1851247;76;25775;-61
2024/03/18 00:32:44;;;;;;;7.40;3.83;;;;;;;0.50;82.09;100470.00;1862006;76;25467;-60
2024/03/18 00:35:13;;;;;;;4.83;3.10;;;;;;;0.50;82.36;100470.00;1863164;76;28029;-62
2024/03/18 00:37:39;;;;;;;6.95;3.77;;;;;;;0.48;82.26;100464.65;1862852;76;25772;-59
2024/03/18 00:40:13;;;;;;;6.58;3.42;;;;;;;0.47;82.39;100457.70;1852155;76;25730;-62
2024/03/18 00:42:36;;;;;;;5.50;3.40;;;;;;;0.46;82.40;100462.22;1843998;76;25397;-60
2024/03/18 00:45:06;;;;;;;4.75;3.12;;;;;;;0.45;82.47;100458.46;1869931;76;25755;-62
2024/03/18 00:47:33;;;;;;;4.62;3.62;;;;;;;0.42;82.51;100458.40;1865684;76;27585;-60
2024/03/18 00:49:59;;;;;;;5.58;3.47;;;;;;;0.42;82.60;100454.41;1783784;79;25747;-62
2024/03/18 00:52:25;;;;;;;4.67;3.33;;;;;;;0.42;82.68;100448.28;1853374;76;25795;-62
2024/03/18 00:54:52;;;;;;;6.53;3.75;;;;;;;0.40;82.65;100449.85;1841515;76;25407;-62
2024/03/18 00:57:19;;;;;;;8.98;3.75;;;;;;;0.39;82.75;100447.42;1841643;76;25435;-60
2024/03/18 00:59:45;;;;;;;6.15;3.50;;;;;;;0.37;82.78;100437.02;1855888;76;27426;-62
2024/03/18 01:02:11;;;;;;;7.33;3.83;;;;;;;0.37;82.97;100441.01;1789779;79;25771;-62
2024/03/18 01:04:37;;;;;;;6.12;3.65;;;;;;;0.36;82.98;100436.75;1848319;76;25944;-61
2024/03/18 01:07:05;;;;;;;7.70;4.03;;;;;;;0.33;83.02;100438.02;1863631;76;26000;-62
2024/03/18 01:09:33;;;;;;;5.75;3.83;;;;;;;0.32;83.13;100443.07;1857837;76;25385;-61
2024/03/18 01:11:59;;;;;;;6.75;3.90;;;;;;;0.33;83.19;100438.55;1851167;76;27453;-62
2024/03/18 01:14:26;;;;;;;7.22;3.60;;;;;;;0.34;83.42;100434.82;1841443;77;25399;-61
2024/03/18 01:16:53;;;;;;;5.37;3.62;;;;;;;0.34;83.33;100430.83;1848276;76;25382;-61
2024/03/18 01:19:20;;;;;;;5.10;3.02;;;;;;;0.34;83.44;100433.49;1863013;76;25647;-62
2024/03/18 01:21:47;;;;;;;5.10;3.67;;;;;;;0.32;83.25;100427.10;1795600;79;25809;-62
2024/03/18 01:24:13;;;;;;;4.30;3.52;;;;;;;0.32;83.30;100432.42;1850381;76;27547;-61
2024/03/18 01:26:39;;;;;;;5.62;3.85;;;;;;;0.34;83.37;100426.84;1867965;76;25788;-59
2024/03/18 01:29:05;;;;;;;4.42;3.30;;;;;;;0.33;83.42;100425.24;1795841;79;25687;-61
2024/03/18 01:31:32;;;;;;;3.55;3.10;;;;;;;0.31;83.32;100420.69;1855703;76;25522;-63
2024/03/18 01:34:04;;;;;;;6.67;3.37;;;;;;;0.30;83.55;100419.86;1859647;76;25426;-61
2024/03/18 01:36:33;;;;;;;5.17;3.72;;;;;;;0.31;83.43;100418.03;1860497;76;27670;-62
2024/03/18 01:38:59;;;;;;;7.42;3.50;;;;;;;0.30;83.47;100415.06;1857145;76;32495;-62
2024/03/18 01:41:25;;;;;;;6.60;3.20;;;;;;;0.30;83.49;100415.86;1856386;76;25504;-62
2024/03/18 01:43:51;;;;;;;7.42;4.22;;;;;;;0.28;83.46;100412.64;1841575;76;25445;-61
2024/03/18 01:46:18;;;;;;;6.70;3.50;;;;;;;0.28;83.49;100413.17;1848238;76;25677;-60
2024/03/18 01:48:47;;;;;;;4.65;3.62;;;;;;;0.27;83.62;100416.86;1861747;76;27473;-61
2024/03/18 01:51:14;;;;;;;7.05;3.77;;;;;;;0.26;83.49;100420.06;1861869;76;25359;-61
2024/03/18 01:53:42;;;;;;;6.75;3.83;;;;;;;0.25;83.66;100420.30;1864544;76;25786;-61
2024/03/18 01:56:09;;;;;;;6.47;3.92;;;;;;;0.22;83.62;100412.25;1859072;76;25575;-62
2024/03/18 01:58:41;;;;;;;7.33;4.40;;;;;;;0.22;83.78;100417.56;1851142;76;25428;-59
2024/03/18 02:01:08;;;;;;;4.28;3.40;;;;;;;0.22;83.85;100415.44;1865164;76;27462;-61
2024/03/18 02:03:35;;;;;;;6.92;3.98;;;;;;;0.21;83.98;100408.52;1853825;76;25377;-61
2024/03/18 02:06:03;;;;;;;5.20;3.58;;;;;;;0.21;83.96;100415.17;1864034;76;25478;-61
2024/03/18 02:08:30;;;;;;;4.60;3.30;;;;;;;0.22;84.13;100414.91;1854869;76;25942;-61
2024/03/18 02:10:56;;;;;;;5.22;3.42;;;;;;;0.22;84.17;100415.44;1858932;76;25762;-59
2024/03/18 02:13:22;;;;;;;7.83;3.58;;;;;;;0.24;84.25;100413.34;1861751;76;26968;-61
2024/03/18 02:15:49;;;;;;;7.10;3.62;;;;;;;0.25;84.39;100410.98;1848277;76;25579;-60
2024/03/18 02:18:15;;;;;;;4.65;3.20;;;;;;;0.25;84.26;100411.78;1857923;76;25385;-59
2024/03/18 02:20:42;;;;;;;5.60;3.47;;;;;;;0.26;84.48;100412.08;1857742;76;26070;-59
2024/03/18 02:23:11;;;;;;;7.33;3.37;;;;;;;0.27;84.45;100410.22;1857842;76;25401;-61
2024/03/18 02:25:39;;;;;;;4.62;3.20;;;;;;;0.27;84.43;100410.22;1850760;76;27457;-60
2024/03/18 02:28:06;;;;;;;4.12;3.10;;;;;;;0.27;84.47;100408.88;1848202;76;25431;-60
2024/03/18 02:30:34;;;;;;;4.15;3.27;;;;;;;0.27;84.35;100411.02;1851308;76;25335;-59
2024/03/18 02:33:03;;;;;;;5.35;3.25;;;;;;;0.25;84.31;100407.78;1853879;76;26382;-60
2024/03/18 02:35:29;;;;;;;5.87;3.47;;;;;;;0.27;84.30;100404.36;1851046;76;25449;-61
2024/03/18 02:37:55;;;;;;;4.90;2.95;;;;;;;0.27;84.30;100401.70;1854788;76;27999;-61
2024/03/18 02:40:22;;;;;;;3.12;2.70;;;;;;;0.27;84.43;100401.70;1839404;76;25576;-61
2024/03/18 02:42:49;;;;;;;3.62;3.22;;;;;;;0.27;84.52;100400.37;1845104;76;25656;-60
2024/03/18 02:45:15;;;;;;;6.42;3.58;;;;;;;0.28;84.67;100394.02;1871166;76;25690;-61
2024/03/18 02:47:43;;;;;;;4.78;3.47;;;;;;;0.27;84.64;100396.91;1846043;76;25437;-61
2024/03/18 02:50:14;;;;;;;4.28;3.30;;;;;;;0.25;84.62;100396.34;1860662;76;27825;-61
2024/03/18 02:52:42;;;;;;;5.50;3.50;;;;;;;0.24;84.72;100396.87;1870241;76;25675;-62
2024/03/18 02:55:09;;;;;;;7.17;4.15;;;;;;;0.22;84.97;100397.61;1796019;78;25595;-61
2024/03/18 02:57:35;;;;;;;5.85;3.22;;;;;;;0.21;85.15;100395.22;1865888;76;25781;-61
2024/03/18 03:00:06;;;;;;;5.65;3.75;;;;;;;0.17;85.00;100397.52;1859495;76;25389;-61
2024/03/18 03:02:33;;;;;;;7.67;3.35;;;;;;;0.15;85.35;100394.30;1856688;76;28044;-61
2024/03/18 03:05:00;;;;;;;5.35;3.40;;;;;;;0.13;85.30;100393.20;1841383;77;25763;-61
2024/03/18 03:07:26;;;;;;;5.53;3.70;;;;;;;0.12;85.47;100383.63;1863175;76;25692;-61
2024/03/18 03:09:53;;;;;;;7.22;3.65;;;;;;;0.11;85.38;100387.31;1854727;76;25456;-61
2024/03/18 03:12:19;;;;;;;4.45;3.62;;;;;;;0.12;85.64;100389.44;1861550;76;25525;-60
2024/03/18 03:14:47;;;;;;;4.37;3.62;;;;;;;0.10;85.70;100390.20;1851140;76;27618;-61
2024/03/18 03:17:13;;;;;;;5.08;3.67;;;;;;;0.07;85.81;100382.70;1864432;76;25698;-61
2024/03/18 03:19:40;;;;;;;5.92;3.77;;;;;;;0.06;86.00;100385.09;1851253;76;25531;-61
2024/03/18 03:22:08;;;;;;;5.78;3.65;;;;;;;0.06;86.18;100381.09;1857824;76;25891;-61
2024/03/18 03:24:34;;;;;;;5.92;3.70;;;;;;;0.04;86.24;100380.53;1860837;76;25446;-61
2024/03/18 03:27:00;;;;;;;5.80;4.03;;;;;;;0.04;86.41;100378.67;1866048;76;27499;-60
2024/03/18 03:29:27;;;;;;;6.45;3.67;;;;;;;0.04;86.39;100380.00;1796910;79;25690;-61
2024/03/18 03:31:56;;;;;;;5.08;3.72;;;;;;;0.03;86.68;100377.05;1790037;78;33153;-61
2024/03/18 03:34:23;;;;;;;6.05;4.33;;;;;;;0.05;86.75;100377.64;1842164;76;26184;-61
2024/03/18 03:36:49;;;;;;;6.58;4.00;;;;;;;0.04;86.67;100370.69;1860662;76;25395;-60
2024/03/18 03:39:15;;;;;;;5.00;3.98;;;;;;;0.05;86.84;100366.17;1848671;76;27842;-61
2024/03/18 03:41:44;;;;;;;6.67;4.10;;;;;;;0.03;86.64;100373.05;1841594;76;25946;-62
2024/03/18 03:44:11;;;;;;;8.50;4.45;;;;;;;0.04;86.76;100373.88;1857967;76;25516;-60
2024/03/18 03:46:40;;;;;;;5.85;4.28;;;;;;;0.03;86.95;100374.38;1858004;76;25892;-64
2024/03/18 03:49:07;;;;;;;5.00;4.25;;;;;;;0.00;86.60;100372.22;1857993;76;25515;-62
2024/03/18 03:51:34;;;;;;;6.58;4.08;;;;;;;-0.01;86.80;100374.05;1859407;76;28625;-61
2024/03/18 03:54:00;;;;;;;8.78;4.55;;;;;;;-0.02;87.03;100365.80;1868577;76;25439;-62
2024/03/18 03:56:28;;;;;;;6.33;4.60;;;;;;;0.00;87.12;100370.89;1866339;76;25754;-67
2024/03/18 03:58:54;;;;;;;7.55;4.30;;;;;;;-0.01;87.16;100358.63;1785435;79;26112;-62
2024/03/18 04:01:21;;;;;;;6.37;4.17;;;;;;;-0.02;87.20;100368.47;1845571;76;25517;-62
2024/03/18 04:03:49;;;;;;;9.25;4.00;;;;;;;-0.02;87.21;100363.15;1841618;76;27485;-62
2024/03/18 04:06:15;;;;;;;6.53;4.50;;;;;;;0.00;87.43;100364.25;1848306;76;25570;-62
2024/03/18 04:08:41;;;;;;;8.73;5.47;;;;;;;-0.04;87.46;100367.88;1864626;76;25461;-63
2024/03/18 04:11:07;;;;;;;13.18;6.05;;;;;;;-0.07;87.51;100363.55;1863436;76;25507;-61
2024/03/18 04:13:34;;;;;;;6.70;4.58;;;;;;;-0.07;87.62;100369.70;1848991;76;25785;-62
2024/03/18 04:16:01;;;;;;;8.80;4.67;;;;;;;-0.07;87.86;100368.38;1850282;76;27525;-62
2024/03/18 04:18:28;;;;;;;6.28;5.30;;;;;;;-0.07;87.85;100368.38;1860427;76;25568;-63
2024/03/18 04:20:54;;;;;;;10.40;5.65;;;;;;;-0.06;88.11;100366.51;1806818;79;25896;-63
2024/03/18 04:23:20;;;;;;;8.60;5.60;;;;;;;-0.08;88.22;100369.40;1863846;76;25974;-63
2024/03/18 04:25:46;;;;;;;9.73;5.90;;;;;;;-0.10;88.21;100361.36;1845504;76;25371;-63
2024/03/18 04:28:13;;;;;;;11.73;7.35;;;;;;;-0.10;88.31;100371.49;1805879;78;27556;-57
2024/03/18 04:30:39;;;;;;;12.07;7.78;;;;;;;-0.12;88.41;100376.75;1815918;77;25723;-57
2024/03/18 04:33:06;;;;;;;13.85;9.05;;;;;;;-0.13;88.64;100374.62;1851191;76;25372;-56
2024/03/18 04:35:33;;;;;;;14.50;9.20;;;;;;;-0.15;88.67;100364.75;1863273;76;25465;-55
2024/03/18 04:38:00;;;;;;;12.90;8.43;;;;;;;-0.13;89.17;100367.17;1805099;79;25619;-53
2024/03/18 04:40:27;;;;;;;12.55;7.95;;;;;;;-0.15;89.19;100370.06;1849743;76;27994;-56
2024/03/18 04:42:55;;;;;;;10.82;7.28;;;;;;;-0.19;89.53;100372.89;1800261;79;25655;-52
2024/03/18 04:45:23;;;;;;;14.55;7.42;;;;;;;-0.19;89.69;100374.22;1850698;76;25336;-53
2024/03/18 04:47:54;;;;;;;14.83;7.22;;;;;;;-0.17;89.86;100376.14;1791156;79;25960;-53
2024/03/18 04:50:24;;;;;;;12.73;6.97;;;;;;;-0.17;90.15;100366.84;1866914;76;25387;-53
2024/03/18 04:52:53;;;;;;;12.10;6.67;;;;;;;-0.17;90.25;100369.50;1866525;76;27438;-53
2024/03/18 04:55:26;;;;;;;12.28;6.75;;;;;;;-0.16;90.28;100376.95;1782184;79;25408;-55
2024/03/18 04:57:55;;;;;;;11.78;6.80;;;;;;;-0.18;90.35;100378.50;1831173;77;25632;-53
2024/03/18 05:00:26;;;;;;;10.82;6.20;;;;;;;-0.20;90.28;100373.95;1862626;76;25395;-56
2024/03/18 05:02:54;;;;;;;12.90;6.42;;;;;;;-0.21;90.58;100378.44;1864285;76;25403;-53
2024/03/18 05:05:21;;;;;;;10.85;6.72;;;;;;;-0.21;90.46;100373.66;1863932;76;28120;-54
2024/03/18 05:07:48;;;;;;;12.33;6.92;;;;;;;-0.21;90.58;100373.66;1854841;76;25417;-53
2024/03/18 05:10:21;;;;;;;11.50;6.45;;;;;;;-0.18;90.79;100376.37;1870762;76;25473;-58
2024/03/18 05:12:44;;;;;;;11.60;7.05;;;;;;;-0.20;90.83;100376.08;1840865;76;25847;-55
2024/03/18 05:15:10;;;;;;;9.73;7.08;;;;;;;-0.19;90.95;100375.55;1803728;79;25786;-52
2024/03/18 05:17:36;;;;;;;10.35;6.75;;;;;;;-0.17;91.26;100374.81;1851294;76;27463;-55
2024/03/18 05:20:04;;;;;;;11.68;7.10;;;;;;;-0.17;91.11;100375.31;1860943;76;25528;-53
2024/03/18 05:22:32;;;;;;;10.80;6.72;;;;;;;-0.18;91.20;100366.54;1853561;76;25813;-54
2024/03/18 05:24:59;;;;;;;9.73;7.05;;;;;;;-0.15;91.50;100382.03;1850980;76;25671;-56
2024/03/18 05:27:25;;;;;;;10.90;7.05;;;;;;;-0.14;91.40;100376.98;1841942;77;25437;-56
2024/03/18 05:29:51;;;;;;;13.93;7.25;;;;;;;-0.13;91.86;100369.30;1851132;76;27422;-56
2024/03/18 05:32:20;;;;;;;10.13;7.60;;;;;;;-0.13;91.55;100370.63;1857359;76;25687;-57
2024/03/18 05:34:46;;;;;;;12.75;7.03;;;;;;;-0.11;91.83;100377.84;1799990;79;25533;-57
2024/03/18 05:37:13;;;;;;;13.18;6.95;;;;;;;-0.15;91.94;100366.58;1871968;76;26307;-57
2024/03/18 05:39:40;;;;;;;12.58;8.23;;;;;;;-0.15;92.12;100374.05;1858517;76;25855;-56
2024/03/18 05:42:08;;;;;;;13.13;7.22;;;;;;;-0.13;92.08;100367.97;1851069;76;27497;-57
2024/03/18 05:44:34;;;;;;;12.90;7.47;;;;;;;-0.13;92.24;100379.94;1859182;76;25506;-57
2024/03/18 05:47:02;;;;;;;11.63;7.33;;;;;;;-0.12;92.64;100376.25;1841403;76;25841;-57
2024/03/18 05:49:28;;;;;;;13.28;7.50;;;;;;;-0.12;92.56;100382.89;1845838;76;26312;-53
2024/03/18 05:51:56;;;;;;;14.38;8.13;;;;;;;-0.12;92.63;100380.73;1855911;76;25499;-53
2024/03/18 05:54:23;;;;;;;12.23;7.00;;;;;;;-0.13;92.75;100375.16;1857852;76;28049;-52
2024/03/18 05:56:50;;;;;;;13.48;7.60;;;;;;;-0.13;92.83;100375.16;1860505;76;25708;-54
2024/03/18 05:59:16;;;;;;;14.35;7.90;;;;;;;-0.10;93.10;100372.83;1864546;75;25539;-55
2024/03/18 06:01:43;;;;;;;14.90;8.43;;;;;;;-0.06;93.63;100370.50;1851023;76;25458;-56
2024/03/18 06:04:12;;;;;;;11.25;6.85;;;;;;;-0.07;93.14;100375.52;1851000;76;25833;-57
2024/03/18 06:06:42;;;;;;;12.53;6.87;;;;;;;-0.05;93.20;100378.24;1848449;76;28193;-57
2024/03/18 06:09:09;;;;;;;11.65;7.45;;;;;;;-0.02;93.45;100378.27;1870998;76;25328;-56
2024/03/18 06:11:39;;;;;;;12.18;7.15;;;;;;;0.01;93.69;100373.82;1855420;76;25450;-53
2024/03/18 06:14:08;;;;;;;12.28;7.92;;;;;;;0.01;93.36;100373.82;1851076;76;25363;-56
2024/03/18 06:16:32;;;;;;;12.05;6.78;;;;;;;0.05;93.63;100373.66;1853351;76;25438;-53
2024/03/18 06:18:59;;;;;;;11.70;7.22;;;;;;;0.09;93.75;100376.64;1848166;76;27415;-53
2024/03/18 06:21:32;;;;;;;10.25;7.45;;;;;;;0.09;93.62;100372.12;1787366;79;25408;-56
2024/03/18 06:23:58;;;;;;;11.88;8.15;;;;;;;0.11;93.76;100366.03;1858319;76;25581;-53
2024/03/18 06:26:23;;;;;;;14.68;8.18;;;;;;;0.18;93.94;100376.00;1845708;76;25996;-55
2024/03/18 06:28:49;;;;;;;13.28;8.13;;;;;;;0.24;94.17;100380.09;1871066;76;25722;-56
2024/03/18 06:31:15;;;;;;;14.73;8.10;;;;;;;0.26;94.04;100372.17;1857748;76;27453;-55
2024/03/18 06:33:43;;;;;;;14.38;7.47;;;;;;;0.30;93.95;100383.14;1858262;76;26728;-58
2024/03/18 06:36:10;;;;;;;11.78;7.05;;;;;;;0.33;94.25;100378.67;1861366;76;25690;-56
2024/03/18 06:38:38;;;;;;;12.20;6.62;;;;;;;0.38;94.28;100379.30;1851036;76;25461;-53
2024/03/18 06:41:09;;;;;;;9.48;6.42;;;;;;;0.37;94.05;100378.47;1864441;76;25390;-56
2024/03/18 06:43:37;;;;;;;8.30;6.85;;;;;;;0.36;93.85;100373.68;1850950;76;27418;-54
2024/03/18 06:46:05;;;;;;;10.60;7.47;;;;;;;0.36;93.89;100381.66;1858704;76;25658;-56
2024/03/18 06:48:33;;;;;;;9.50;6.40;;;;;;;0.38;93.96;100373.45;1853101;76;25638;-53
2024/03/18 06:51:00;;;;;;;11.55;7.42;;;;;;;0.39;94.09;100375.04;1853807;76;25727;-54
2024/03/18 06:53:26;;;;;;;9.65;6.65;;;;;;;0.41;94.18;100380.95;1850096;76;25630;-53
2024/03/18 06:55:54;;;;;;;9.03;7.17;;;;;;;0.45;94.26;100379.42;1849315;76;28365;-55
2024/03/18 06:58:24;;;;;;;11.35;8.10;;;;;;;0.50;94.56;100374.19;1850464;76;25794;-53
2024/03/18 07:00:49;;;;;;;12.65;7.47;;;;;;;0.55;94.67;100378.27;1840814;76;25390;-54
2024/03/18 07:03:15;;;;;;;9.78;7.05;;;;;;;0.60;94.71;100377.55;1841578;77;25510;-55
2024/03/18 07:05:42;;;;;;;11.38;7.08;;;;;;;0.63;94.61;100374.41;1848759;76;25779;-52
2024/03/18 07:08:09;;;;;;;12.13;7.17;;;;;;;0.66;94.47;100369.91;1843858;76;27489;-56
2024/03/18 07:10:35;;;;;;;14.70;7.08;;;;;;;0.70;94.45;100375.59;1841508;76;25416;-55
2024/03/18 07:13:01;;;;;;;13.30;7.53;;;;;;;0.74;94.61;100378.84;1862592;76;25601;-55
2024/03/18 07:15:28;;;;;;;12.33;8.03;;;;;;;0.77;94.58;100375.41;1867412;76;25799;-57
2024/03/18 07:17:54;;;;;;;113.40;64.65;;;;;;;0.80;94.61;100377.59;1852725;76;25447;-55
2024/03/18 07:20:21;;;;;;;40.28;26.10;;;;;;;0.87;94.91;100374.23;1852021;76;27419;-54
2024/03/18 07:22:48;;;;;;;14.18;9.63;;;;;;;0.97;95.34;100384.25;1853100;76;25501;-55
2024/03/18 07:25:17;;;;;;;11.68;7.62;;;;;;;0.99;94.74;100380.81;1865556;76;25665;-55
2024/03/18 07:27:46;;;;;;;11.28;8.03;;;;;;;1.04;94.87;100380.89;1854524;76;25559;-53
2024/03/18 07:30:17;;;;;;;15.65;9.10;;;;;;;1.09;95.02;100377.80;1841682;76;25800;-57
2024/03/18 07:32:43;;;;;;;9.00;7.62;;;;;;;1.17;95.17;100380.56;1855864;76;27512;-56
2024/03/18 07:35:14;;;;;;;13.70;7.72;;;;;;;1.18;94.51;100381.39;1843327;76;25740;-57
2024/03/18 07:37:44;;;;;;;11.85;7.35;;;;;;;1.16;94.13;100381.63;1852675;76;25851;-56
2024/03/18 07:40:11;;;;;;;10.48;7.40;;;;;;;1.19;94.05;100382.48;1781336;79;26484;-54
2024/03/18 07:42:41;;;;;;;12.25;7.12;;;;;;;1.23;94.29;100386.27;1794216;78;25580;-56
2024/03/18 07:45:10;;;;;;;10.25;7.42;;;;;;;1.27;94.34;100382.58;1848359;76;27521;-53
2024/03/18 07:47:37;;;;;;;11.22;7.80;;;;;;;1.30;94.39;100386.09;1803191;79;25406;-57
2024/03/18 07:50:06;;;;;;;11.38;7.70;;;;;;;1.31;94.26;100387.69;1854350;76;25540;-54
2024/03/18 07:52:32;;;;;;;11.40;8.43;;;;;;;1.33;94.08;100391.44;1854947;76;26218;-54
2024/03/18 07:55:00;;;;;;;13.58;7.17;;;;;;;1.34;94.27;100390.41;1866516;76;25600;-57
2024/03/18 07:57:28;;;;;;;11.10;7.53;;;;;;;1.34;93.93;100391.73;1798554;79;27424;-55
2024/03/18 07:59:55;;;;;;;11.73;7.85;;;;;;;1.34;93.79;100391.20;1825238;77;25820;-56
2024/03/18 08:02:22;;;;;;;11.08;7.37;;;;;;;1.38;94.23;100396.84;1803570;79;25483;-54
2024/03/18 08:04:50;;;;;;;10.05;7.25;;;;;;;1.40;94.33;100398.23;1850235;75;26103;-54
2024/03/18 08:07:16;;;;;;;9.78;7.05;;;;;;;1.42;94.23;100393.98;1849446;76;25766;-54
2024/03/18 08:09:44;;;;;;;11.73;7.00;;;;;;;1.44;94.02;100400.67;1869335;76;27423;-56
2024/03/18 08:12:10;;;;;;;9.88;7.33;;;;;;;1.50;94.60;100396.23;1862875;76;25556;-56
2024/03/18 08:14:41;;;;;;;12.68;6.70;;;;;;;1.56;94.82;100397.91;1798660;79;25744;-56
2024/03/18 08:17:06;;;;;;;14.63;6.92;;;;;;;1.63;94.80;100401.19;1849673;76;26058;-56
2024/03/18 08:19:32;;;;;;;8.70;6.75;;;;;;;1.67;94.64;100393.53;1778182;79;25633;-56
2024/03/18 08:22:00;;;;;;;13.10;7.20;;;;;;;1.73;94.83;100393.86;1850746;76;28161;-54
2024/03/18 08:24:26;;;;;;;13.50;7.85;;;;;;;1.79;94.58;100388.08;1856451;76;25834;-58
2024/03/18 08:26:54;;;;;;;104.90;69.62;;;;;;;1.88;95.03;100391.92;1855159;76;25536;-56
2024/03/18 08:29:21;;;;;;;29.05;19.98;;;;;;;2.03;96.08;100391.30;1855205;76;25523;-59
2024/03/18 08:31:48;;;;;;;12.80;7.62;;;;;;;2.17;96.11;100382.38;1805119;79;25793;-55
2024/03/18 08:34:15;;;;;;;12.47;7.90;;;;;;;2.33;96.00;100384.66;1863504;76;27365;-58
2024/03/18 08:36:41;;;;;;;10.55;8.15;;;;;;;2.47;95.83;100387.23;1868288;76;25420;-56
2024/03/18 08:39:09;;;;;;;14.55;8.53;;;;;;;2.61;95.69;100384.94;1799533;79;25559;-54
2024/03/18 08:41:36;;;;;;;11.83;7.70;;;;;;;2.71;95.10;100384.23;1799832;79;25777;-57
2024/03/18 08:44:03;;;;;;;10.23;6.87;;;;;;;2.80;95.08;100379.48;1829072;77;25659;-57
2024/03/18 08:46:29;;;;;;;10.35;6.53;;;;;;;2.83;93.24;100382.70;1829850;77;27686;-56
2024/03/18 08:48:55;;;;;;;10.68;7.62;;;;;;;2.85;92.79;100385.41;1783236;79;25507;-55
2024/03/18 08:51:22;;;;;;;11.05;7.45;;;;;;;2.87;92.59;100379.27;1850419;76;25763;-55
2024/03/18 08:53:48;;;;;;;10.82;7.08;;;;;;;2.95;93.26;100381.48;1860675;76;26106;-56
2024/03/18 08:56:14;;;;;;;10.43;7.72;;;;;;;2.99;92.82;100381.77;1860781;76;25400;-56
2024/03/18 08:58:42;;;;;;;11.22;7.15;;;;;;;3.09;93.35;100389.06;1877911;76;27820;-56
2024/03/18 09:01:09;;;;;;;9.28;6.45;;;;;;;3.18;92.96;100384.33;1857586;76;25749;-54
2024/03/18 09:03:37;;;;;;;9.15;6.42;;;;;;;3.23;92.84;100380.86;1841984;76;25504;-58
2024/03/18 09:06:05;;;;;;;6.53;5.10;;;;;;;3.29;91.95;100382.52;1863896;76;26444;-54
2024/03/18 09:08:31;;;;;;;12.18;6.72;;;;;;;3.35;92.08;100383.34;1864461;76;25642;-54
2024/03/18 09:10:57;;;;;;;8.53;6.40;;;;;;;3.33;90.93;100390.28;1799138;79;27980;-56
2024/03/18 09:13:24;;;;;;;38.53;26.73;;;;;;;3.29;90.64;100385.19;1857546;76;25520;-57
2024/03/18 09:15:52;;;;;;;31.45;22.87;;;;;;;3.30;90.46;100387.33;1801603;77;25840;-57
2024/03/18 09:18:18;;;;;;;10.75;8.40;;;;;;;3.27;90.30;100387.33;1855281;76;25473;-55
2024/03/18 09:20:51;;;;;;;13.28;7.17;;;;;;;3.23;89.75;100391.56;1855263;76;25363;-53
2024/03/18 09:23:18;;;;;;;9.93;6.80;;;;;;;3.22;89.90;100395.31;1841526;76;27819;-53
2024/03/18 09:25:45;;;;;;;8.90;6.30;;;;;;;3.22;90.08;100396.65;1848164;76;25442;-54
2024/03/18 09:28:11;;;;;;;9.18;6.47;;;;;;;3.26;90.35;100391.59;1850969;76;25387;-54
2024/03/18 09:30:37;;;;;;;7.95;6.53;;;;;;;3.28;90.31;100393.47;1852313;76;25606;-56
2024/03/18 09:33:05;;;;;;;10.18;5.78;;;;;;;3.33;90.67;100394.84;1864573;76;25765;-54
2024/03/18 09:35:31;;;;;;;7.47;5.83;;;;;;;3.34;90.18;100390.57;1867320;76;28130;-55
2024/03/18 09:37:57;;;;;;;7.87;5.83;;;;;;;3.34;89.85;100389.78;1864437;76;25588;-55
2024/03/18 09:40:28;;;;;;;8.70;5.92;;;;;;;3.36;90.20;100391.66;1867765;76;25583;-58
2024/03/18 09:42:56;;;;;;;10.53;5.87;;;;;;;3.36;90.16;100397.80;1857673;76;26300;-58
2024/03/18 09:45:24;;;;;;;7.92;6.30;;;;;;;3.37;90.16;100398.59;1872322;76;25398;-58
2024/03/18 09:47:52;;;;;;;9.80;5.65;;;;;;;3.33;89.54;100402.32;1871184;76;27494;-58
2024/03/18 09:50:18;;;;;;;7.53;5.75;;;;;;;3.26;89.22;100405.75;1841415;76;25433;-59
2024/03/18 09:52:46;;;;;;;7.12;5.40;;;;;;;3.21;89.73;100404.92;1871148;76;25514;-56
2024/03/18 09:55:23;;;;;;;8.75;5.78;;;;;;;3.25;90.30;100403.34;1853123;76;25732;-58
2024/03/18 09:57:50;;;;;;;8.00;5.83;;;;;;;3.41;92.06;100405.59;1857915;76;25500;-57
2024/03/18 10:00:20;;;;;;;9.40;5.70;;;;;;;3.78;94.55;100388.14;1842159;76;28424;-57
2024/03/18 10:02:49;;;;;;;7.58;5.03;;;;;;;4.18;95.69;100393.89;1841476;76;25754;-57
2024/03/18 10:05:17;;;;;;;6.25;5.15;;;;;;;4.54;94.80;100388.06;1841621;76;32401;-56
2024/03/18 10:07:46;;;;;;;8.63;4.90;;;;;;;4.80;94.54;100391.58;1850999;76;25793;-54
2024/03/18 10:10:16;;;;;;;6.42;4.55;;;;;;;4.96;92.60;100391.03;1856466;76;25410;-56
2024/03/18 10:12:44;;;;;;;6.62;5.10;;;;;;;4.94;90.46;100385.66;1786042;79;27578;-56
2024/03/18 10:15:13;;;;;;;5.72;5.03;;;;;;;4.91;89.40;100392.38;1860752;76;25853;-59
2024/03/18 10:17:44;;;;;;;6.22;4.92;;;;;;;4.83;88.06;100386.21;1858645;76;28955;-55
2024/03/18 10:20:21;;;;;;;8.23;5.47;;;;;;;4.76;87.30;100392.38;1869722;76;26173;-56
2024/03/18 10:22:51;;;;;;;8.55;5.47;;;;;;;4.64;86.67;100397.45;1800210;79;25417;-55
2024/03/18 10:25:23;;;;;;;7.22;5.47;;;;;;;4.45;85.21;100393.69;1860600;76;27856;-57
2024/03/18 10:27:57;;;;;;;7.95;5.97;;;;;;;4.28;85.73;100394.71;1850978;76;25784;-57
2024/03/18 10:30:20;;;;;;;8.55;6.37;;;;;;;4.17;85.56;100399.79;1840716;76;25764;-55
2024/03/18 10:32:52;;;;;;;8.65;6.08;;;;;;;4.02;85.36;100393.84;1850136;76;25525;-54
2024/03/18 10:35:32;;;;;;;10.25;6.65;;;;;;;3.86;85.45;100389.49;1857634;76;25377;-57
2024/03/18 10:37:59;;;;;;;10.75;7.28;;;;;;;3.76;86.00;100391.58;1797799;79;27464;-57
2024/03/18 10:40:34;;;;;;;10.00;7.40;;;;;;;3.76;87.12;100390.78;1846228;76;25832;-56
2024/03/18 10:43:06;;;;;;;12.73;7.50;;;;;;;3.73;87.48;100384.89;1847422;76;25576;-57
2024/03/18 10:45:36;;;;;;;9.93;6.35;;;;;;;3.74;87.70;100386.48;1877832;76;25770;-57
2024/03/18 10:48:10;;;;;;;8.98;7.12;;;;;;;3.69;87.18;100387.80;1855325;76;25423;-57
2024/03/18 10:50:37;;;;;;;10.70;7.03;;;;;;;3.63;87.42;100389.41;1782325;79;27520;-54
2024/03/18 10:53:07;;;;;;;10.20;6.80;;;;;;;3.60;87.90;100390.71;1865373;76;25667;-56
2024/03/18 10:55:36;;;;;;;11.73;7.10;;;;;;;3.63;88.15;100397.43;1863440;76;25513;-56
2024/03/18 10:58:03;;;;;;;10.23;6.95;;;;;;;3.58;87.81;100403.55;1831835;76;25801;-60
2024/03/18 11:00:30;;;;;;;41.25;24.82;;;;;;;3.49;87.29;100395.21;1841748;76;25509;-58
2024/03/18 11:03:03;;;;;;;16.62;9.18;;;;;;;3.39;87.34;100397.00;1841656;77;27447;-60
2024/03/18 11:05:33;;;;;;;10.72;8.00;;;;;;;3.34;87.95;100397.80;1865390;76;25669;-61
2024/03/18 11:08:05;;;;;;;12.78;7.35;;;;;;;3.38;88.89;100404.23;1857726;76;25568;-60
2024/03/18 11:10:36;;;;;;;8.63;6.20;;;;;;;3.42;89.13;100409.32;1805021;79;25476;-59
2024/03/18 11:13:16;;;;;;;8.20;6.10;;;;;;;3.43;88.81;100406.14;1867540;76;25528;-55
2024/03/18 11:15:54;;;;;;;9.78;6.60;;;;;;;3.41;88.62;100402.38;1861694;75;27442;-58
2024/03/18 11:18:27;;;;;;;9.45;6.47;;;;;;;3.41;88.81;100404.26;1861368;76;25813;-55
2024/03/18 11:20:57;;;;;;;8.40;6.22;;;;;;;3.44;89.22;100405.88;1790726;78;25544;-53
2024/03/18 11:23:31;;;;;;;10.60;7.40;;;;;;;3.52;90.35;100406.73;1844387;76;26123;-56
2024/03/18 11:26:09;;;;;;;9.93;7.37;;;;;;;3.80;92.88;100394.03;1841454;76;25525;-55
2024/03/18 11:28:48;;;;;;;11.78;7.97;;;;;;;4.14;93.83;100387.44;1861201;76;28324;-56